Time;durP1;ratioP1;P1;durP2;ratioP2;P2;SDS_P1;SDS_P2;PMS_P1;PMS_P2;Temp;Humidity;BMP_temperature;BMP_pressure;BME280_temperature;BME280_humidity;BME280_pressure;Samples;Min_cycle;Max_cycle;Signal;HPM_P1;HPM_P2
2022/12/09 00:00:11;;;;;;;10.75;7.63;;;;;;;-4.85;100.00;91775.47;2123238;27;20068;-72
2022/12/09 00:01:17;;;;;;;11.05;7.13;;;;;;;-4.83;100.00;91768.81;2123256;27;20038;-72
2022/12/09 00:02:19;;;;;;;11.18;7.30;;;;;;;-4.84;100.00;91769.13;2114846;27;20020;-71
2022/12/09 00:03:20;;;;;;;10.48;7.57;;;;;;;-4.87;100.00;91780.28;2105934;28;20355;-72
2022/12/09 00:04:22;;;;;;;10.77;7.50;;;;;;;-4.97;100.00;91780.88;2114035;28;20027;-72
2022/12/09 00:05:23;;;;;;;10.27;7.18;;;;;;;-4.96;100.00;91785.75;2124593;27;20036;-72
2022/12/09 00:06:27;;;;;;;9.70;7.32;;;;;;;-4.97;100.00;91784.22;2126697;27;20015;-72
2022/12/09 00:07:28;;;;;;;11.75;6.80;;;;;;;-4.98;100.00;91781.97;2125285;27;20323;-72
2022/12/09 00:08:29;;;;;;;14.90;7.47;;;;;;;-5.03;100.00;91777.06;2125453;27;20027;-71
2022/12/09 00:09:29;;;;;;;10.27;7.03;;;;;;;-5.08;100.00;91781.47;2122344;27;20034;-72
2022/12/09 00:10:30;;;;;;;9.32;6.43;;;;;;;-5.07;100.00;91779.63;2122283;27;20039;-72
2022/12/09 00:11:31;;;;;;;10.50;6.75;;;;;;;-5.06;100.00;91783.72;2122029;27;20015;-73
2022/12/09 00:12:34;;;;;;;11.52;7.53;;;;;;;-5.07;100.00;91769.97;2129594;27;20346;-74
2022/12/09 00:13:35;;;;;;;8.93;6.35;;;;;;;-5.09;100.00;91774.03;2128885;27;20129;-74
2022/12/09 00:14:36;;;;;;;11.77;6.63;;;;;;;-5.08;100.00;91778.88;2129354;27;20369;-71
2022/12/09 00:15:41;;;;;;;8.05;6.38;;;;;;;-5.12;100.00;91775.47;2125224;27;20019;-72
2022/12/09 00:16:42;;;;;;;10.70;6.28;;;;;;;-5.19;100.00;91783.16;2123165;27;20081;-74
2022/12/09 00:17:43;;;;;;;9.82;7.07;;;;;;;-5.16;100.00;91777.28;2121651;27;20451;-72
2022/12/09 00:18:45;;;;;;;14.27;7.53;;;;;;;-5.17;100.00;91777.63;2126143;27;20016;-73
2022/12/09 00:19:46;;;;;;;8.45;6.32;;;;;;;-5.15;100.00;91781.38;2125517;27;20473;-74
2022/12/09 00:20:47;;;;;;;10.52;6.90;;;;;;;-5.13;100.00;91773.97;2113753;28;20499;-74
2022/12/09 00:21:48;;;;;;;10.85;7.03;;;;;;;-5.16;100.00;91781.72;2113739;28;20031;-75
2022/12/09 00:22:49;;;;;;;13.20;7.63;;;;;;;-5.17;100.00;91780.97;2127007;27;20019;-73
2022/12/09 00:23:51;;;;;;;11.05;6.88;;;;;;;-5.10;100.00;91786.28;2121846;27;20023;-71
2022/12/09 00:24:53;;;;;;;11.52;7.20;;;;;;;-4.99;100.00;91777.88;2122297;27;20389;-75
2022/12/09 00:25:56;;;;;;;9.95;6.70;;;;;;;-5.04;100.00;91786.75;2121885;27;20449;-72
2022/12/09 00:26:57;;;;;;;10.57;6.78;;;;;;;-5.10;100.00;91783.66;2122223;27;20019;-73
2022/12/09 00:27:57;;;;;;;13.80;7.47;;;;;;;-5.07;100.00;91787.44;2124870;27;20070;-72
2022/12/09 00:28:59;;;;;;;12.70;7.05;;;;;;;-5.05;100.00;91787.81;2125965;27;20019;-74
2022/12/09 00:30:00;;;;;;;9.98;6.40;;;;;;;-5.04;100.00;91791.97;2128744;27;20098;-73
2022/12/09 00:31:02;;;;;;;10.63;6.80;;;;;;;-4.99;100.00;91788.31;2126990;27;20115;-73
2022/12/09 00:32:03;;;;;;;9.38;6.55;;;;;;;-4.92;100.00;91780.56;2127584;27;20527;-73
2022/12/09 00:33:04;;;;;;;9.25;6.50;;;;;;;-4.89;100.00;91785.09;2121942;27;20102;-73
2022/12/09 00:34:09;;;;;;;11.60;6.93;;;;;;;-4.88;100.00;91782.13;2121984;27;20443;-73
2022/12/09 00:35:10;;;;;;;10.35;6.85;;;;;;;-4.83;100.00;91784.44;2128144;27;20053;-73
2022/12/09 00:36:18;;;;;;;11.73;7.50;;;;;;;-4.83;100.00;91779.22;2129049;27;20030;-70
2022/12/09 00:37:19;;;;;;;11.35;7.32;;;;;;;-4.83;100.00;91778.44;2128129;27;20027;-71
2022/12/09 00:38:20;;;;;;;9.20;7.03;;;;;;;-4.82;100.00;91774.75;2129544;27;20039;-70
2022/12/09 00:39:22;;;;;;;10.93;6.78;;;;;;;-4.86;100.00;91776.56;2132423;27;20038;-73
2022/12/09 00:40:22;;;;;;;10.82;7.03;;;;;;;-4.92;100.00;91770.88;2134387;27;20027;-74
2022/12/09 00:41:24;;;;;;;10.55;7.47;;;;;;;-4.90;100.00;91780.97;2134807;27;20031;-72
2022/12/09 00:42:25;;;;;;;11.65;6.75;;;;;;;-4.89;100.00;91772.81;2129414;27;20073;-73
2022/12/09 00:43:27;;;;;;;9.73;7.07;;;;;;;-4.84;100.00;91769.13;2125150;27;20034;-72
2022/12/09 00:44:28;;;;;;;10.98;6.53;;;;;;;-4.77;100.00;91765.88;2125126;27;20035;-74
2022/12/09 00:45:29;;;;;;;9.77;7.20;;;;;;;-4.84;100.00;91761.31;2130044;27;20015;-73
2022/12/09 00:46:49;;;;;;;10.05;6.85;;;;;;;-4.77;100.00;91763.28;2128226;27;20023;-72
2022/12/09 00:48:01;;;;;;;12.63;7.03;;;;;;;-4.78;100.00;91759.16;2129079;27;20025;-71
2022/12/09 00:49:22;;;;;;;11.27;7.03;;;;;;;-4.90;100.00;91757.53;2122451;27;20414;-71
2022/12/09 00:50:45;;;;;;;11.38;6.70;;;;;;;-4.86;100.00;91766.91;2130763;27;20019;-71
2022/12/09 00:52:05;;;;;;;10.85;6.90;;;;;;;-4.88;100.00;91766.47;2126669;27;20472;-73
2022/12/09 00:53:24;;;;;;;9.60;7.07;;;;;;;-4.90;100.00;91763.50;2124269;27;20415;-74
2022/12/09 00:54:44;;;;;;;10.70;6.90;;;;;;;-4.92;100.00;91763.06;2127834;27;20366;-72
2022/12/09 00:56:05;;;;;;;9.80;6.50;;;;;;;-4.93;100.00;91758.97;2127255;27;20054;-73
2022/12/09 00:57:25;;;;;;;10.60;6.55;;;;;;;-4.98;100.00;91756.69;2129787;27;20015;-75
2022/12/09 00:58:46;;;;;;;8.05;5.60;;;;;;;-4.98;100.00;91766.34;2126197;27;20472;-74
2022/12/09 01:00:07;;;;;;;9.32;6.72;;;;;;;-4.90;100.00;91758.28;2125347;27;20016;-73
2022/12/09 01:01:28;;;;;;;8.68;6.43;;;;;;;-4.91;100.00;91754.19;2125562;27;20092;-72
2022/12/09 01:02:48;;;;;;;10.52;6.68;;;;;;;-4.92;100.00;91764.94;2124381;27;20081;-72
2022/12/09 01:04:09;;;;;;;10.05;6.05;;;;;;;-4.93;100.00;91753.00;2123572;27;20059;-72
2022/12/09 01:05:09;;;;;;;9.32;6.68;;;;;;;-4.95;100.00;91763.78;2126724;27;20445;-72
2022/12/09 01:06:30;;;;;;;9.52;6.82;;;;;;;-4.91;100.00;91753.44;2124750;27;20051;-72
2022/12/09 01:07:50;;;;;;;11.55;6.68;;;;;;;-4.96;100.00;91751.88;2121701;27;20034;-72
2022/12/09 01:09:06;;;;;;;10.05;6.45;;;;;;;-4.92;100.00;91746.69;2113533;27;20011;-72
2022/12/09 01:10:26;;;;;;;11.38;6.80;;;;;;;-5.03;100.00;91738.75;2121200;27;20492;-72
2022/12/09 01:11:46;;;;;;;7.72;5.95;;;;;;;-5.02;100.00;91735.03;2124080;27;20552;-72
2022/12/09 01:12:47;;;;;;;9.30;6.80;;;;;;;-5.06;100.00;91739.44;2130341;27;20026;-72
2022/12/09 01:14:08;;;;;;;10.63;6.30;;;;;;;-5.11;100.00;91740.50;2125864;27;20536;-72
2022/12/09 01:15:29;;;;;;;10.48;6.60;;;;;;;-5.04;100.00;91742.47;2126525;27;20503;-72
2022/12/09 01:16:49;;;;;;;9.65;6.63;;;;;;;-5.02;100.00;91736.88;2121755;27;20439;-72
2022/12/09 01:18:11;;;;;;;10.48;6.25;;;;;;;-5.08;100.00;91734.59;2131659;27;20042;-72
2022/12/09 01:19:33;;;;;;;8.88;5.75;;;;;;;-5.15;100.00;91741.56;2133880;27;20405;-72
2022/12/09 01:20:57;;;;;;;9.70;6.05;;;;;;;-4.97;100.00;91742.53;2130421;27;20488;-72
2022/12/09 01:22:12;;;;;;;8.57;5.75;;;;;;;-5.15;100.00;91747.50;2133862;27;20022;-72
2022/12/09 01:23:32;;;;;;;9.10;5.90;;;;;;;-5.30;100.00;91745.81;2134532;27;20011;-73
2022/12/09 01:24:53;;;;;;;8.18;5.93;;;;;;;-5.30;100.00;91743.22;2132627;27;20487;-76
2022/12/09 01:26:13;;;;;;;9.88;6.82;;;;;;;-5.45;100.00;91741.50;2133263;27;20468;-75
2022/12/09 01:27:35;;;;;;;9.27;5.85;;;;;;;-5.54;100.00;91744.34;2135026;27;20030;-75
2022/12/09 01:28:56;;;;;;;10.15;6.30;;;;;;;-5.51;100.00;91737.69;2137321;27;20019;-76
2022/12/09 01:30:17;;;;;;;8.18;5.45;;;;;;;-5.57;100.00;91734.63;2134125;27;20023;-76
2022/12/09 01:31:38;;;;;;;8.15;5.75;;;;;;;-5.62;100.00;91750.53;2137306;27;20440;-75
2022/12/09 01:32:39;;;;;;;10.07;6.75;;;;;;;-5.66;100.00;91742.69;2129986;27;20482;-76
2022/12/09 01:33:41;;;;;;;9.23;6.15;;;;;;;-5.73;100.00;91741.81;2129984;27;20488;-76
2022/12/09 01:35:03;;;;;;;9.38;6.57;;;;;;;-5.72;100.00;91748.53;2136214;27;20037;-76
2022/12/09 01:36:27;;;;;;;9.93;6.50;;;;;;;-5.67;100.00;91741.16;2133430;27;20018;-77
2022/12/09 01:37:35;;;;;;;8.30;5.80;;;;;;;-5.76;100.00;91743.25;2134009;27;20018;-76
2022/12/09 01:38:57;;;;;;;10.52;6.05;;;;;;;-5.79;100.00;91738.75;2131087;27;20445;-76
2022/12/09 01:40:15;;;;;;;8.65;6.20;;;;;;;-5.84;100.00;91741.63;2134950;27;20026;-78
2022/12/09 01:41:28;;;;;;;11.55;6.22;;;;;;;-5.86;100.00;91738.63;2134542;27;20471;-76
2022/12/09 01:42:50;;;;;;;10.32;6.50;;;;;;;-5.88;100.00;91740.84;2137164;27;20509;-77
2022/12/09 01:44:23;;;;;;;9.88;5.95;;;;;;;-5.87;100.00;91739.75;2120895;27;20023;-76
2022/12/09 01:45:44;;;;;;;9.65;6.47;;;;;;;-5.85;100.00;91737.53;2130230;27;20035;-77
2022/12/09 01:47:20;;;;;;;10.52;6.88;;;;;;;-5.95;100.00;91741.50;2133015;27;20819;-75
2022/12/09 01:48:40;;;;;;;8.50;5.90;;;;;;;-5.99;100.00;91742.53;2123896;27;20023;-75
2022/12/09 01:50:00;;;;;;;9.63;6.13;;;;;;;-5.89;100.00;91740.06;2115748;27;20429;-75
2022/12/09 01:51:09;;;;;;;8.68;6.22;;;;;;;-5.88;100.00;91733.03;2124728;27;20447;-75
2022/12/09 01:52:20;;;;;;;10.95;6.78;;;;;;;-5.83;100.00;91733.50;2132551;27;20018;-75
2022/12/09 01:53:43;;;;;;;10.88;6.88;;;;;;;-5.90;100.00;91730.78;2134712;27;20493;-75
2022/12/09 01:54:46;;;;;;;11.38;7.00;;;;;;;-5.86;100.00;91728.22;2132955;27;20785;-75
2022/12/09 01:55:47;;;;;;;9.07;6.32;;;;;;;-5.87;100.00;91731.94;2134933;27;20438;-75
2022/12/09 01:56:57;;;;;;;10.05;7.00;;;;;;;-5.83;100.00;91724.94;2132770;27;20431;-75
2022/12/09 01:57:58;;;;;;;8.63;6.20;;;;;;;-5.81;100.00;91722.72;2121148;27;20521;-75
2022/12/09 01:59:05;;;;;;;9.00;5.88;;;;;;;-5.85;100.00;91714.13;2121015;27;20020;-75
2022/12/09 02:00:07;;;;;;;9.38;6.18;;;;;;;-5.85;100.00;91716.72;2134406;27;20463;-74
2022/12/09 02:01:29;;;;;;;10.90;6.45;;;;;;;-5.87;100.00;91718.94;2132441;27;20110;-74
2022/12/09 02:02:33;;;;;;;11.65;6.65;;;;;;;-5.75;100.00;91718.75;2131596;27;21028;-74
2022/12/09 02:03:34;;;;;;;9.10;6.13;;;;;;;-5.87;100.00;91717.06;2121322;27;21017;-75
2022/12/09 02:04:39;;;;;;;9.00;6.18;;;;;;;-5.87;100.00;91717.06;2121712;27;20889;-75
2022/12/09 02:05:55;;;;;;;8.75;6.00;;;;;;;-5.87;100.00;91709.28;2129959;27;20496;-74
2022/12/09 02:07:17;;;;;;;9.68;5.93;;;;;;;-5.83;100.00;91706.72;2134271;27;20038;-74
2022/12/09 02:08:20;;;;;;;9.93;6.05;;;;;;;-5.82;100.00;91706.38;2133962;27;20971;-75
2022/12/09 02:09:21;;;;;;;9.60;6.38;;;;;;;-5.88;100.00;91707.03;2138133;27;20439;-75
2022/12/09 02:10:23;;;;;;;9.40;6.53;;;;;;;-5.91;100.00;91707.72;2132951;27;20034;-75
2022/12/09 02:11:36;;;;;;;11.25;7.13;;;;;;;-5.98;100.00;91710.22;2121791;27;20530;-75
2022/12/09 02:12:56;;;;;;;10.50;6.47;;;;;;;-5.99;100.00;91708.72;2124978;27;20019;-75
2022/12/09 02:14:20;;;;;;;7.35;5.65;;;;;;;-5.99;100.00;91701.66;2132803;27;20427;-74
2022/12/09 02:17:20;;;;;;;;;;;;;;;-6.05;100.00;91695.25;2140137;27;21326;-73
2022/12/09 02:18:37;;;;;;;9.65;5.32;;;;;;;-6.04;100.00;91688.22;2137453;27;19962;-73
2022/12/09 02:19:47;;;;;;;11.45;5.82;;;;;;;-6.12;100.00;91689.94;2135666;27;20424;-73
2022/12/09 02:21:08;;;;;;;8.07;5.25;;;;;;;-6.13;100.00;91683.25;2138018;27;20484;-74
2022/12/09 02:22:14;;;;;;;11.55;6.18;;;;;;;-6.03;100.00;91690.44;2122536;27;20770;-74
2022/12/09 02:23:20;;;;;;;9.73;5.90;;;;;;;-5.79;100.00;91683.34;2122507;27;20441;-73
2022/12/09 02:24:36;;;;;;;7.57;5.80;;;;;;;-5.74;100.00;91689.03;2138004;27;20026;-74
2022/12/09 02:25:45;;;;;;;8.45;5.43;;;;;;;-5.77;100.00;91687.13;2126420;27;20452;-74
2022/12/09 02:26:57;;;;;;;9.75;6.25;;;;;;;-5.78;100.00;91684.88;2097713;28;20431;-74
2022/12/09 02:28:11;;;;;;;7.78;5.68;;;;;;;-5.74;100.00;91686.44;2110292;27;20482;-74
2022/12/09 02:29:26;;;;;;;9.88;6.30;;;;;;;-5.83;100.00;91693.72;2136105;27;20435;-74
2022/12/09 02:30:36;;;;;;;9.98;6.10;;;;;;;-5.82;100.00;91690.03;2136501;27;20777;-74
2022/12/09 02:31:47;;;;;;;8.07;5.70;;;;;;;-5.78;100.00;91684.88;2137377;27;20519;-75
2022/12/09 02:33:09;;;;;;;9.15;5.72;;;;;;;-5.78;100.00;91679.66;2136550;27;20038;-75
2022/12/09 02:34:19;;;;;;;8.82;6.18;;;;;;;-5.80;100.00;91682.59;2135893;27;20035;-75
2022/12/09 02:35:51;;;;;;;8.03;5.80;;;;;;;-5.81;100.00;91675.91;2129969;27;20444;-75
2022/12/09 02:37:07;;;;;;;10.70;6.10;;;;;;;-5.72;100.00;91670.47;2132824;27;20451;-74
2022/12/09 02:38:16;;;;;;;9.30;5.60;;;;;;;-5.70;100.00;91674.22;2134440;27;20526;-76
2022/12/09 02:39:23;;;;;;;9.35;6.07;;;;;;;-5.70;100.00;91683.88;2137506;27;20447;-75
2022/12/09 02:40:35;;;;;;;9.43;6.38;;;;;;;-5.65;100.00;91686.19;2135737;27;20075;-76
2022/12/09 02:41:42;;;;;;;8.30;6.15;;;;;;;-5.60;100.00;91676.22;2137535;27;20014;-73
2022/12/09 02:42:46;;;;;;;13.07;6.47;;;;;;;-5.53;100.00;91680.78;2126666;27;20808;-76
2022/12/09 02:43:52;;;;;;;9.95;6.00;;;;;;;-5.49;100.00;91673.75;2128157;27;20456;-73
2022/12/09 02:44:55;;;;;;;10.52;6.53;;;;;;;-5.41;100.00;91669.41;2137859;27;20022;-75
2022/12/09 02:46:00;;;;;;;9.55;5.90;;;;;;;-5.39;100.00;91664.63;2136147;27;20018;-74
2022/12/09 02:47:05;;;;;;;10.57;6.18;;;;;;;-5.40;100.00;91666.47;2137507;27;20484;-76
2022/12/09 02:48:10;;;;;;;11.95;6.60;;;;;;;-5.44;100.00;91668.28;2137918;27;20019;-73
2022/12/09 02:49:14;;;;;;;10.02;6.30;;;;;;;-5.35;100.00;91660.94;2136573;27;20042;-74
2022/12/09 02:50:20;;;;;;;9.93;6.72;;;;;;;-5.32;100.00;91662.09;2137531;27;20527;-74
2022/12/09 02:51:23;;;;;;;9.40;5.90;;;;;;;-5.20;100.00;91661.88;2137808;27;20023;-75
2022/12/09 02:52:25;;;;;;;10.88;6.30;;;;;;;-5.29;100.00;91660.63;2135736;27;20042;-73
2022/12/09 02:53:28;;;;;;;9.45;6.63;;;;;;;-5.27;100.00;91653.97;2137476;27;20034;-75
2022/12/09 02:54:32;;;;;;;11.60;6.78;;;;;;;-5.33;100.00;91653.53;2137223;27;20105;-74
2022/12/09 02:55:35;;;;;;;9.90;6.40;;;;;;;-5.30;100.00;91662.50;2136745;27;20391;-75
2022/12/09 02:56:38;;;;;;;9.68;6.53;;;;;;;-5.25;100.00;91646.56;2137683;27;20435;-76
2022/12/09 02:57:39;;;;;;;11.18;6.75;;;;;;;-5.26;100.00;91646.94;2125621;27;20057;-74
2022/12/09 02:58:40;;;;;;;9.00;6.22;;;;;;;-5.29;100.00;91642.41;2128091;27;20023;-76
2022/12/09 02:59:41;;;;;;;8.40;6.35;;;;;;;-5.09;100.00;91646.41;2135375;27;20046;-74
2022/12/09 03:00:42;;;;;;;10.15;6.35;;;;;;;-5.09;100.00;91641.19;2137340;27;20053;-77
2022/12/09 03:02:10;;;;;;;8.57;6.40;;;;;;;-5.06;100.00;91651.63;2137486;27;20684;-76
2022/12/09 03:03:17;;;;;;;10.43;6.32;;;;;;;-5.10;100.00;91642.28;2106836;28;20067;-75
2022/12/09 03:04:25;;;;;;;9.57;6.78;;;;;;;-5.02;100.00;91635.28;2137165;27;20022;-75
2022/12/09 03:05:35;;;;;;;10.82;6.97;;;;;;;-5.10;100.00;91637.81;2137630;27;20030;-74
2022/12/09 03:06:45;;;;;;;10.75;6.88;;;;;;;-5.10;100.00;91632.59;2137647;27;20022;-74
2022/12/09 03:08:04;;;;;;;;;;;;;;;-5.11;100.00;91640.78;2136693;27;20033;-74
2022/12/09 03:09:13;;;;;;;9.25;5.97;;;;;;;-4.98;100.00;91639.44;2134730;27;19903;-74
2022/12/09 03:10:26;;;;;;;9.70;6.22;;;;;;;-4.93;100.00;91640.97;2128303;27;20031;-74
2022/12/09 03:11:30;;;;;;;10.48;6.40;;;;;;;-4.97;100.00;91637.59;2130459;27;20500;-75
2022/12/09 03:12:36;;;;;;;10.35;6.70;;;;;;;-4.85;100.00;91637.34;2137791;27;20027;-75
2022/12/09 03:14:03;;;;;;;11.00;6.20;;;;;;;-4.80;100.00;91634.44;2136778;27;20035;-75
2022/12/09 03:15:06;;;;;;;9.40;6.60;;;;;;;-4.82;100.00;91634.03;2136306;27;20037;-75
2022/12/09 03:16:18;;;;;;;9.23;6.68;;;;;;;-4.91;100.00;91630.97;2137559;27;20059;-74
2022/12/09 03:17:29;;;;;;;10.75;6.65;;;;;;;-4.97;100.00;91630.50;2137128;27;20118;-74
2022/12/09 03:18:32;;;;;;;8.95;6.47;;;;;;;-5.00;100.00;91625.25;2136206;27;20428;-75
2022/12/09 03:19:41;;;;;;;9.43;6.30;;;;;;;-5.00;100.00;91620.03;2136770;27;20471;-77
2022/12/09 03:20:46;;;;;;;10.90;6.95;;;;;;;-4.96;100.00;91623.44;2135567;27;20030;-74
2022/12/09 03:21:51;;;;;;;11.93;7.25;;;;;;;-4.92;100.00;91621.63;2137505;27;20018;-74
2022/12/09 03:22:57;;;;;;;9.98;6.68;;;;;;;-4.91;100.00;91613.47;2137514;27;20052;-74
2022/12/09 03:24:00;;;;;;;8.80;6.75;;;;;;;-4.93;100.00;91627.94;2135778;27;20174;-74
2022/12/09 03:25:13;;;;;;;11.02;6.95;;;;;;;-4.98;100.00;91628.28;2127225;27;20042;-74
2022/12/09 03:26:16;;;;;;;7.82;6.30;;;;;;;-4.85;100.00;91621.72;2130027;27;20087;-74
2022/12/09 03:27:28;;;;;;;9.48;6.30;;;;;;;-4.78;100.00;91619.19;2128076;27;20106;-74
2022/12/09 03:28:35;;;;;;;9.30;6.72;;;;;;;-4.80;100.00;91610.97;2114582;27;20102;-74
2022/12/09 03:29:40;;;;;;;10.95;7.40;;;;;;;-4.82;100.00;91615.81;2124231;27;20019;-74
2022/12/09 03:30:43;;;;;;;11.05;7.00;;;;;;;-4.79;100.00;91624.75;2129610;27;20393;-74
2022/12/09 03:31:46;;;;;;;11.35;7.13;;;;;;;-4.78;100.00;91615.81;2131800;27;20061;-74
2022/12/09 03:32:48;;;;;;;11.15;7.25;;;;;;;-4.81;100.00;91617.28;2122393;27;20426;-74
2022/12/09 03:33:52;;;;;;;10.45;7.05;;;;;;;-4.79;100.00;91609.84;2113599;27;20449;-74
2022/12/09 03:35:16;;;;;;;8.95;7.05;;;;;;;-4.77;100.00;91605.06;2115314;27;20015;-73
2022/12/09 03:36:19;;;;;;;13.60;7.20;;;;;;;-4.77;100.00;91594.63;2124574;27;21010;-74
2022/12/09 03:37:20;;;;;;;10.77;7.72;;;;;;;-4.73;100.00;91605.84;2131595;27;20102;-73
2022/12/09 03:38:26;;;;;;;9.32;6.80;;;;;;;-4.75;100.00;91604.69;2130967;27;20448;-74
2022/12/09 03:39:31;;;;;;;9.55;7.13;;;;;;;-4.76;100.00;91600.59;2129663;27;20358;-74
2022/12/09 03:40:34;;;;;;;9.43;7.05;;;;;;;-4.70;100.00;91597.28;2131170;27;20051;-73
2022/12/09 03:41:37;;;;;;;10.20;6.68;;;;;;;-4.66;100.00;91599.94;2131654;27;20043;-74
2022/12/09 03:42:43;;;;;;;11.80;7.10;;;;;;;-4.60;100.00;91607.09;2131128;27;20033;-74
2022/12/09 03:43:52;;;;;;;12.38;6.90;;;;;;;-4.61;100.00;91595.16;2131060;27;20050;-73
2022/12/09 03:44:57;;;;;;;10.65;6.80;;;;;;;-4.67;100.00;91596.59;2131487;27;20342;-73
2022/12/09 03:45:58;;;;;;;10.23;6.70;;;;;;;-4.67;100.00;91599.19;2129600;27;20511;-73
2022/12/09 03:46:59;;;;;;;10.15;6.82;;;;;;;-4.62;100.00;91593.66;2131573;27;20519;-74
2022/12/09 03:48:01;;;;;;;9.57;6.57;;;;;;;-4.60;100.00;91588.84;2131088;27;20019;-74
2022/12/09 03:49:03;;;;;;;14.13;6.60;;;;;;;-4.64;100.00;91595.13;2117635;27;20019;-73
2022/12/09 03:50:05;;;;;;;9.77;6.60;;;;;;;-4.64;100.00;91590.66;2122422;27;20373;-73
2022/12/09 03:51:15;;;;;;;9.45;7.15;;;;;;;-4.56;100.00;91592.22;2131072;27;20038;-74
2022/12/09 03:52:21;;;;;;;11.95;6.93;;;;;;;-4.59;100.00;91592.94;2130712;27;20059;-73
2022/12/09 03:53:34;;;;;;;13.30;7.18;;;;;;;-4.53;100.00;91595.97;2121751;27;20071;-74
2022/12/09 03:54:43;;;;;;;9.98;6.78;;;;;;;-4.54;100.00;91585.91;2123478;27;20023;-74
2022/12/09 03:55:54;;;;;;;10.15;6.68;;;;;;;-4.59;100.00;91595.53;2122322;27;20102;-75
2022/12/09 03:56:57;;;;;;;9.85;6.28;;;;;;;-4.56;100.00;91591.50;2119872;27;20019;-76
2022/12/09 03:58:02;;;;;;;9.80;6.68;;;;;;;-4.52;100.00;91588.88;2113735;28;20030;-74
2022/12/09 03:59:07;;;;;;;11.48;6.80;;;;;;;-4.50;100.00;91582.22;2113780;28;20111;-74
2022/12/09 04:00:09;;;;;;;13.02;7.72;;;;;;;-4.48;100.00;91581.84;2119657;27;20137;-74
2022/12/09 04:01:10;;;;;;;11.63;6.80;;;;;;;-4.44;100.00;91574.81;2119890;27;20016;-73
2022/12/09 04:02:11;;;;;;;10.98;6.93;;;;;;;-4.49;100.00;91577.75;2131687;27;20384;-74
2022/12/09 04:03:16;;;;;;;10.38;6.90;;;;;;;-4.49;100.00;91567.31;2131569;27;20019;-74
2022/12/09 04:04:17;;;;;;;9.48;6.80;;;;;;;-4.45;100.00;91570.72;2131647;27;20022;-73
2022/12/09 04:05:18;;;;;;;10.13;7.40;;;;;;;-4.43;100.00;91563.28;2130529;27;20437;-74
2022/12/09 04:06:19;;;;;;;11.85;7.35;;;;;;;-4.45;100.00;91563.63;2130924;27;20023;-75
2022/12/09 04:07:20;;;;;;;10.23;7.00;;;;;;;-4.50;100.00;91563.97;2131584;27;20022;-74
2022/12/09 04:08:21;;;;;;;13.30;7.47;;;;;;;-4.48;100.00;91561.00;2120287;27;20035;-75
2022/12/09 04:09:22;;;;;;;12.02;7.72;;;;;;;-4.46;100.00;91548.38;2120231;27;20015;-74
2022/12/09 04:10:23;;;;;;;12.07;7.35;;;;;;;-4.45;100.00;91555.81;2122119;27;20473;-75
2022/12/09 04:11:24;;;;;;;10.80;7.18;;;;;;;-4.48;100.00;91556.53;2118752;27;20015;-74
2022/12/09 04:12:25;;;;;;;9.05;7.47;;;;;;;-4.44;100.00;91552.09;2130784;27;20440;-73
2022/12/09 04:13:26;;;;;;;10.70;7.03;;;;;;;-4.37;100.00;91552.16;2131381;27;20018;-74
2022/12/09 04:14:26;;;;;;;13.15;8.40;;;;;;;-4.37;100.00;91548.81;2131272;27;20023;-75
2022/12/09 04:15:27;;;;;;;11.07;7.57;;;;;;;-4.36;100.00;91553.66;2131169;27;20421;-73
2022/12/09 04:16:28;;;;;;;9.40;7.07;;;;;;;-4.28;100.00;91554.47;2130611;27;20030;-75
2022/12/09 04:17:29;;;;;;;8.60;6.32;;;;;;;-4.18;100.00;91553.78;2130760;27;20050;-73
2022/12/09 04:18:30;;;;;;;10.55;7.45;;;;;;;-4.18;100.00;91548.56;2131300;27;20014;-74
2022/12/09 04:19:31;;;;;;;8.77;6.72;;;;;;;-4.15;100.00;91549.72;2131282;27;20019;-75
2022/12/09 04:20:32;;;;;;;11.10;7.40;;;;;;;-4.15;100.00;91549.72;2130996;27;20023;-73
2022/12/09 04:21:35;;;;;;;9.95;7.20;;;;;;;-4.19;100.00;91538.50;2131345;27;20019;-74
2022/12/09 04:22:36;;;;;;;10.02;7.05;;;;;;;-4.17;100.00;91544.88;2130446;27;20019;-74
2022/12/09 04:23:37;;;;;;;10.25;7.07;;;;;;;-4.24;100.00;91544.81;2131027;27;20023;-74
2022/12/09 04:24:38;;;;;;;9.10;6.82;;;;;;;-4.24;100.00;91539.59;2129265;27;20035;-74
2022/12/09 04:25:42;;;;;;;9.10;6.68;;;;;;;-4.28;100.00;91546.63;2121932;27;20023;-74
2022/12/09 04:26:44;;;;;;;9.68;6.72;;;;;;;-4.29;100.00;91549.63;2122497;27;20034;-74
2022/12/09 04:27:45;;;;;;;9.88;7.03;;;;;;;-4.27;100.00;91544.78;2130272;27;20023;-74
2022/12/09 04:28:46;;;;;;;12.38;7.50;;;;;;;-4.28;100.00;91538.06;2131018;27;20406;-75
2022/12/09 04:29:47;;;;;;;9.48;6.82;;;;;;;-4.28;100.00;91533.59;2131275;27;20026;-75
2022/12/09 04:30:48;;;;;;;10.95;7.30;;;;;;;-4.25;100.00;91532.88;2131038;27;20030;-75
2022/12/09 04:31:49;;;;;;;11.73;7.32;;;;;;;-4.29;100.00;91539.19;2130477;27;20046;-75
2022/12/09 04:32:49;;;;;;;10.02;6.90;;;;;;;-4.26;100.00;91535.84;2130826;27;20065;-75
2022/12/09 04:33:50;;;;;;;10.80;7.15;;;;;;;-4.24;100.00;91531.03;2131023;27;20019;-75
2022/12/09 04:34:52;;;;;;;10.38;7.00;;;;;;;-4.28;100.00;91535.47;2130651;27;20535;-74
2022/12/09 04:35:53;;;;;;;11.73;7.50;;;;;;;-4.23;100.00;91533.25;2128712;27;20034;-75
2022/12/09 04:36:54;;;;;;;10.95;6.97;;;;;;;-4.22;100.00;91526.91;2131114;27;20027;-74
2022/12/09 04:37:55;;;;;;;10.88;7.80;;;;;;;-4.27;100.00;91535.09;2111982;28;20476;-74
2022/12/09 04:38:56;;;;;;;12.13;7.70;;;;;;;-4.27;100.00;91531.72;2113580;27;20101;-74
2022/12/09 04:39:57;;;;;;;11.52;7.30;;;;;;;-4.25;100.00;91532.13;2112451;28;20020;-74
2022/12/09 04:40:59;;;;;;;10.98;7.43;;;;;;;-4.22;100.00;91518.34;2102530;28;20028;-74
2022/12/09 04:42:00;;;;;;;11.02;7.07;;;;;;;-4.18;100.00;91526.94;2120335;27;20023;-75
2022/12/09 04:43:01;;;;;;;11.80;7.05;;;;;;;-4.20;100.00;91516.88;2130806;27;20512;-74
2022/12/09 04:44:02;;;;;;;9.68;6.68;;;;;;;-4.22;100.00;91529.53;2130602;27;20079;-74
2022/12/09 04:45:04;;;;;;;11.13;7.25;;;;;;;-4.17;100.00;91524.00;2131131;27;20026;-75
2022/12/09 04:46:09;;;;;;;10.02;7.00;;;;;;;-4.19;100.00;91528.81;2130987;27;20059;-75
2022/12/09 04:47:10;;;;;;;12.95;7.95;;;;;;;-4.15;100.00;91521.75;2128846;27;20026;-75
2022/12/09 04:48:11;;;;;;;10.50;7.38;;;;;;;-4.16;100.00;91517.66;2130338;27;20019;-74
2022/12/09 04:49:11;;;;;;;12.05;7.65;;;;;;;-4.11;100.00;91521.78;2130950;27;20027;-74
2022/12/09 04:50:12;;;;;;;11.50;7.97;;;;;;;-4.09;100.00;91519.56;2130969;27;20023;-74
2022/12/09 04:51:15;;;;;;;11.57;7.32;;;;;;;-4.11;100.00;91522.53;2130764;27;20025;-74
2022/12/09 04:52:17;;;;;;;11.80;7.63;;;;;;;-4.13;100.00;91522.13;2130988;27;20010;-74
2022/12/09 04:53:18;;;;;;;12.05;7.30;;;;;;;-4.13;100.00;91524.00;2130507;27;20023;-74
2022/12/09 04:54:18;;;;;;;11.07;7.63;;;;;;;-4.13;100.00;91522.13;2121228;27;20035;-74
2022/12/09 04:55:20;;;;;;;11.00;7.35;;;;;;;-4.11;100.00;91522.53;2121470;27;20023;-74
2022/12/09 04:56:21;;;;;;;10.00;7.30;;;;;;;-4.09;100.00;91517.69;2130824;27;20456;-75
2022/12/09 04:57:22;;;;;;;12.13;7.65;;;;;;;-4.06;100.00;91513.63;2130903;27;20033;-74
2022/12/09 04:58:23;;;;;;;10.25;7.28;;;;;;;-4.09;100.00;91514.34;2130340;27;20019;-74
2022/12/09 04:59:23;;;;;;;9.85;6.93;;;;;;;-4.03;100.00;91519.97;2119723;27;20473;-75
2022/12/09 05:00:24;;;;;;;12.25;7.63;;;;;;;-4.13;100.00;91509.09;2121842;27;20019;-75
2022/12/09 05:01:25;;;;;;;13.13;8.73;;;;;;;-4.09;100.00;91512.47;2130409;27;20030;-75
2022/12/09 05:02:26;;;;;;;11.00;7.88;;;;;;;-4.08;100.00;91510.63;2130119;27;20034;-74
2022/12/09 05:03:27;;;;;;;11.68;8.00;;;;;;;-4.07;100.00;91506.91;2130436;27;20034;-74
2022/12/09 05:04:28;;;;;;;10.80;7.35;;;;;;;-4.07;100.00;91510.25;2121759;27;20057;-74
2022/12/09 05:05:29;;;;;;;10.52;7.50;;;;;;;-4.06;100.00;91506.53;2121739;27;20484;-74
2022/12/09 05:06:30;;;;;;;11.90;8.07;;;;;;;-4.08;100.00;91506.16;2121642;27;20252;-74
2022/12/09 05:07:31;;;;;;;12.88;7.47;;;;;;;-4.07;100.00;91507.66;2121445;27;20453;-73
2022/12/09 05:08:32;;;;;;;11.93;8.32;;;;;;;-4.00;100.00;91511.41;2130578;27;20472;-77
2022/12/09 05:09:33;;;;;;;11.35;8.18;;;;;;;-3.95;100.00;91516.28;2131126;27;20026;-77
2022/12/09 05:10:34;;;;;;;12.25;7.97;;;;;;;-3.92;100.00;91511.09;2137064;27;20031;-74
2022/12/09 05:11:35;;;;;;;10.73;7.40;;;;;;;-3.84;100.00;91511.88;2138259;27;20026;-74
2022/12/09 05:12:36;;;;;;;12.05;7.70;;;;;;;-3.90;100.00;91506.25;2137936;27;20018;-74